METAR Data
IDs: Format: Raw Decoded Include TAF

Data at: 0157 UTC 26 Apr 2019

KABQ 260152Z 20005KT 10SM FEW100 SCT160 SCT210 23/00 A3010 RMK AO2 SLP128 VIRGA SW-NW T02280000
KABQ 260052Z 21008KT 10SM FEW100 SCT150 SCT250 25/M01 A3008 RMK AO2 SLP122 VIRGA S T02501011
KABQ 252352Z 00000KT 10SM FEW080 SCT200 25/M02 A3009 RMK AO2 SLP125 T02501017 10261 20200 56009
KABQ 252252Z 21006KT 10SM FEW100 SCT200 25/M02 A3009 RMK AO2 SLP126 T02501022 $
KABQ 252152Z 17007KT 10SM FEW100 25/M02 A3010 RMK AO2 SLP128 T02501017 $
KABQ 252052Z 24004KT 10SM FEW090 24/M01 A3012 RMK AO2 SLP135 T02391006 56009
KABQ 251952Z 30006KT 10SM FEW090 24/M01 A3012 RMK AO2 SLP136 T02391006
KABQ 251852Z 31005KT 10SM FEW080 23/02 A3013 RMK AO2 SLP139 T02280022
KABQ 251752Z 00000KT 10SM FEW070 20/02 A3015 RMK AO2 SLP150 T02000017 10206 20106 50004
KABQ 251652Z 00000KT 10SM FEW070 19/02 A3015 RMK AO2 SLP153 T01890017
KABQ 251552Z 36003KT 10SM CLR 17/02 A3015 RMK AO2 SLP152 T01670017
KABQ 251452Z 01006KT 10SM CLR 15/01 A3013 RMK AO2 SLP141 T01500011 51021
KABQ 251352Z 01003KT 10SM CLR 13/02 A3012 RMK AO2 SLP139 T01330017
KABQ 251252Z 00000KT 6SM HZ FEW010 12/03 A3009 RMK AO2 SLP131 FU FEW010 FU SW-W T01170028
KABQ 251152Z 00000KT 10SM CLR 11/03 A3006 RMK AO2 SLP124 T01060028 10139 20089 51011
KABQ 251052Z 14006KT 10SM CLR 10/03 A3005 RMK AO2 SLP117 T01000033 $
KABQ 250952Z 17003KT 10SM CLR 11/04 A3004 RMK AO2 SLP113 T01110039 $
KABQ 250852Z 13003KT 10SM CLR 11/04 A3002 RMK AO2 SLP108 T01110039 50003 $
KABQ 250752Z 00000KT 10SM CLR 12/04 A3002 RMK AO2 SLP108 T01220044 $
KABQ 250652Z 14005KT 10SM CLR 14/04 A3002 RMK AO2 SLP105 T01390039 402220056 $
KABQ 250552Z 14003KT 10SM CLR 13/05 A3001 RMK AO2 SLP107 T01330050 10217 20128 51009 $
KABQ 250452Z 14007KT 10SM FEW110 13/06 A3001 RMK AO2 SLP108 T01330056 $
KABQ 250352Z 15004KT 10SM FEW110 16/04 A3000 RMK AO2 SLP109 T01560039 $
KABQ 250252Z 31006KT 10SM FEW110 21/M02 A2998 RMK AO2 SLP096 T02061017 53007 $
KABQ 250152Z 31009KT 10SM SCT110 21/M02 A2996 RMK AO2 SLP090 T02111017 $
KABQ 250052Z 22005KT 10SM SCT110 22/01 A2995 RMK AO2 SLP089 T02170011 $
KABQ 242352Z 23005KT 10SM SCT110 BKN150 21/03 A2996 RMK AO2 SLP093 T02060028 10222 20167 55011
KABQ 242252Z 25007KT 10SM FEW080 SCT110 22/02 A2996 RMK AO2 SLP093 T02170017
KABQ 242152Z 23004KT 10SM FEW085 SCT110 21/02 A2997 RMK AO2 SLP099 T02110022
KABQ 242052Z 28005KT 10SM BKN090 21/01 A3000 RMK AO2 SLP105 T02110011 56016
KABQ 241952Z 03006KT 10SM FEW070 21/02 A3001 RMK AO2 SLP111 T02060022
KABQ 241852Z 33007KT 10SM FEW055 19/05 A3003 RMK AO2 SLP118 T01890050
KABQ 241752Z 30006KT 10SM FEW045 17/06 A3005 RMK AO2 SLP128 T01720056 10178 20061 58012
KABQ 241652Z 01010KT 10SM FEW040 16/06 A3008 RMK AO2 SLP141 T01610056
KABQ 241552Z 33006KT 10SM FEW030 FEW130 12/06 A3008 RMK AO2 SLP152 T01220061
KABQ 241452Z 35006KT 10SM FEW020 FEW130 10/06 A3009 RMK AO2 SLP155 T01000056 51009